createdAt,value
2022-08-17T00:00:01.709Z,99800.00
2022-08-17T00:02:29.383Z,99794.66
2022-08-17T00:04:58.139Z,99793.33
2022-08-17T00:07:25.097Z,99794.13
2022-08-17T00:09:52.049Z,99786.41
2022-08-17T00:12:41.141Z,99780.18
2022-08-17T00:15:08.243Z,99776.48
2022-08-17T00:17:37.701Z,99780.15
2022-08-17T00:20:05.503Z,99783.06
2022-08-17T00:22:36.358Z,99782.70
2022-08-17T00:25:09.785Z,99785.30
2022-08-17T00:27:37.196Z,99781.91
2022-08-17T00:30:05.991Z,99777.91
2022-08-17T00:33:11.678Z,99775.66
2022-08-17T00:35:31.454Z,99775.05
2022-08-17T00:37:58.302Z,99774.79
2022-08-17T00:40:25.265Z,99775.73
2022-08-17T00:42:53.529Z,99780.89
2022-08-17T00:45:20.810Z,99780.65
2022-08-17T00:47:47.868Z,99784.55
2022-08-17T00:50:17.307Z,99789.77
2022-08-17T00:52:48.965Z,99793.52
2022-08-17T00:55:16.015Z,99792.95
2022-08-17T00:57:44.716Z,99794.10
2022-08-17T01:00:26.860Z,99790.95
2022-08-17T01:03:14.460Z,99790.59
2022-08-17T01:05:42.317Z,99792.00
2022-08-17T01:08:11.544Z,99789.80
2022-08-17T01:10:59.140Z,99787.79
2022-08-17T01:13:40.149Z,99785.31
2022-08-17T01:16:18.594Z,99786.92
2022-08-17T01:18:48.178Z,99785.36
2022-08-17T01:21:33.503Z,99779.75
2022-08-17T01:24:01.278Z,99779.27
2022-08-17T01:26:28.641Z,99785.29
2022-08-17T01:28:55.977Z,99788.48
2022-08-17T01:31:24.939Z,99786.74
2022-08-17T01:33:51.868Z,99780.48
2022-08-17T01:36:18.921Z,99776.11
2022-08-17T01:38:45.875Z,99779.94
2022-08-17T01:41:14.579Z,99787.35
2022-08-17T01:43:45.727Z,99789.41
2022-08-17T01:46:16.143Z,99786.21
2022-08-17T01:48:43.933Z,99784.50
2022-08-17T01:51:10.887Z,99780.88
2022-08-17T01:53:40.196Z,99778.55
2022-08-17T01:56:10.839Z,99769.33
2022-08-17T01:58:38.406Z,99763.04
2022-08-17T02:01:06.313Z,99762.67
2022-08-17T02:03:34.758Z,99763.36
2022-08-17T02:06:02.521Z,99762.49
2022-08-17T02:08:39.025Z,99766.38
2022-08-17T02:11:22.938Z,99771.88
2022-08-17T02:13:57.901Z,99774.78
2022-08-17T02:16:37.715Z,99775.03
2022-08-17T02:19:07.061Z,99777.83
2022-08-17T02:21:34.584Z,99782.91
2022-08-17T02:24:01.532Z,99779.15
2022-08-17T02:26:28.479Z,99774.43
2022-08-17T02:28:55.967Z,99771.75
2022-08-17T02:31:22.883Z,99772.59
2022-08-17T02:34:00.459Z,99776.70
2022-08-17T02:36:35.268Z,99775.84
2022-08-17T02:39:07.290Z,99774.02
2022-08-17T02:41:35.338Z,99770.70
2022-08-17T02:44:02.741Z,99774.55
2022-08-17T02:46:31.295Z,99782.03
2022-08-17T02:49:00.083Z,99788.31
2022-08-17T02:51:28.266Z,99789.52
2022-08-17T02:54:05.335Z,99789.04
2022-08-17T02:56:42.841Z,99791.94
2022-08-17T02:59:09.789Z,99794.52
2022-08-17T03:01:36.815Z,99793.96
2022-08-17T03:04:04.292Z,99791.34
2022-08-17T03:06:32.180Z,99790.45
2022-08-17T03:08:59.137Z,99787.73
2022-08-17T03:11:26.290Z,99786.61
2022-08-17T03:13:56.520Z,99788.38
2022-08-17T03:16:23.474Z,99785.67
2022-08-17T03:18:50.424Z,99783.36
2022-08-17T03:21:17.379Z,99783.10
2022-08-17T03:23:44.231Z,99780.26
2022-08-17T03:26:15.582Z,99782.90
2022-08-17T03:28:43.367Z,99784.19
2022-08-17T03:31:10.320Z,99786.29
2022-08-17T03:33:37.276Z,99793.32
2022-08-17T03:36:04.950Z,99794.55
2022-08-17T03:38:39.223Z,99801.24
2022-08-17T03:41:07.351Z,99802.62
2022-08-17T03:43:34.912Z,99801.08
2022-08-17T03:46:28.160Z,99799.46
2022-08-17T03:49:24.530Z,99800.27
2022-08-17T03:52:10.334Z,99796.23
2022-08-17T03:54:55.929Z,99793.67
2022-08-17T03:57:23.078Z,99794.98
2022-08-17T03:59:50.338Z,99796.98
2022-08-17T04:02:26.099Z,99793.05
2022-08-17T04:04:54.358Z,99794.41
2022-08-17T04:07:22.838Z,99792.73
2022-08-17T04:09:49.833Z,99793.14
2022-08-17T04:12:18.139Z,99793.45
2022-08-17T04:14:53.588Z,99795.58
2022-08-17T04:17:24.767Z,99793.96
2022-08-17T04:19:52.079Z,99791.39
2022-08-17T04:22:31.184Z,99792.01
2022-08-17T04:25:16.394Z,99794.55
2022-08-17T04:27:43.342Z,99798.91
2022-08-17T04:30:11.221Z,99798.35
2022-08-17T04:33:14.631Z,99794.19
2022-08-17T04:35:43.730Z,99787.08
2022-08-17T04:38:12.339Z,99787.99
2022-08-17T04:40:57.813Z,99789.96
2022-08-17T04:43:25.575Z,99787.52
2022-08-17T04:45:56.521Z,99780.61
2022-08-17T04:48:35.745Z,99787.52
2022-08-17T04:51:05.808Z,99789.19
2022-08-17T04:53:32.949Z,99786.13
2022-08-17T04:55:59.898Z,99789.38
2022-08-17T04:58:26.745Z,99790.26
2022-08-17T05:00:54.247Z,99794.98
2022-08-17T05:03:21.260Z,99789.95
2022-08-17T05:05:50.046Z,99788.52
2022-08-17T05:08:18.848Z,99787.18
2022-08-17T05:10:46.046Z,99787.47
2022-08-17T05:13:23.706Z,99789.48
2022-08-17T05:15:56.588Z,99788.84
2022-08-17T05:18:24.652Z,99782.81
2022-08-17T05:20:52.492Z,99776.98
2022-08-17T05:23:20.615Z,99776.78
2022-08-17T05:25:49.760Z,99776.98
2022-08-17T05:28:18.615Z,99777.38
2022-08-17T05:30:49.320Z,99783.42
2022-08-17T05:33:22.138Z,99780.48
2022-08-17T05:35:50.230Z,99783.66
2022-08-17T05:38:18.515Z,99783.59
2022-08-17T05:40:45.537Z,99783.65
2022-08-17T05:43:12.785Z,99777.91
2022-08-17T05:45:55.957Z,99775.00
2022-08-17T05:48:39.176Z,99769.23
2022-08-17T05:51:26.660Z,99768.89
2022-08-17T05:54:08.864Z,99765.73
2022-08-17T05:56:48.096Z,99763.37
2022-08-17T05:59:44.736Z,99760.88
2022-08-17T06:02:20.590Z,99763.27
2022-08-17T06:04:50.605Z,99766.48
2022-08-17T06:07:32.499Z,99767.23
2022-08-17T06:10:02.515Z,99770.00
2022-08-17T06:12:47.176Z,99771.12
2022-08-17T06:15:40.133Z,99771.79
2022-08-17T06:18:09.120Z,99776.16
2022-08-17T06:20:43.133Z,99776.71
2022-08-17T06:23:12.387Z,99774.99
2022-08-17T06:25:45.136Z,99770.77
2022-08-17T06:28:14.890Z,99767.16
2022-08-17T06:31:00.794Z,99765.39
2022-08-17T06:33:36.690Z,99766.48
2022-08-17T06:36:16.038Z,99771.66
2022-08-17T06:38:55.947Z,99777.33
2022-08-17T06:41:52.384Z,99782.47
2022-08-17T06:44:49.923Z,99789.09
2022-08-17T06:47:37.165Z,99789.73
2022-08-17T06:50:07.643Z,99791.64
2022-08-17T06:52:45.901Z,99795.34
2022-08-17T06:55:26.369Z,99794.69
2022-08-17T06:57:56.050Z,99794.38
2022-08-17T07:00:24.799Z,99797.64
2022-08-17T07:02:56.819Z,99802.13
2022-08-17T07:06:00.420Z,99805.40
2022-08-17T07:08:43.034Z,99803.83
2022-08-17T07:11:13.355Z,99803.07
2022-08-17T07:13:59.045Z,99802.96
2022-08-17T07:16:42.380Z,99801.66
2022-08-17T07:19:10.978Z,99798.80
2022-08-17T07:21:42.108Z,99797.19
2022-08-17T07:24:30.174Z,99793.77
2022-08-17T07:27:05.107Z,99792.05
2022-08-17T07:29:33.360Z,99793.16
2022-08-17T07:32:00.310Z,99788.21
2022-08-17T07:34:29.045Z,99785.11
2022-08-17T07:37:03.484Z,99782.70
2022-08-17T07:39:30.824Z,99785.08
2022-08-17T07:42:04.185Z,99785.84
2022-08-17T07:44:31.239Z,99784.23
2022-08-17T07:47:16.724Z,99779.75
2022-08-17T07:49:46.484Z,99777.20
2022-08-17T07:52:51.776Z,99773.88
2022-08-17T07:55:40.652Z,99769.63
2022-08-17T07:58:07.909Z,99765.13
2022-08-17T08:00:34.964Z,99767.14
2022-08-17T08:03:37.240Z,99765.88
2022-08-17T08:06:22.212Z,99766.67
2022-08-17T08:08:54.987Z,99767.16
2022-08-17T08:11:33.133Z,99761.31
2022-08-17T08:14:28.426Z,99761.44
2022-08-17T08:17:00.802Z,99757.71
2022-08-17T08:19:29.240Z,99756.40
2022-08-17T08:22:07.765Z,99761.29
2022-08-17T08:24:59.638Z,99766.30
2022-08-17T08:27:30.375Z,99767.84
2022-08-17T08:30:06.744Z,99766.80
2022-08-17T08:33:17.375Z,99764.66
2022-08-17T08:36:56.938Z,99765.67
2022-08-17T08:39:31.293Z,99768.36
2022-08-17T08:42:23.771Z,99768.42
2022-08-17T08:45:04.761Z,99764.02
2022-08-17T08:47:53.879Z,99763.41
2022-08-17T08:50:38.075Z,99763.05
2022-08-17T08:53:24.344Z,99765.11
2022-08-17T08:55:51.189Z,99771.05
2022-08-17T08:58:41.888Z,99768.98
2022-08-17T09:01:24.579Z,99769.17
2022-08-17T09:04:20.021Z,99771.92
2022-08-17T09:07:02.746Z,99769.85
2022-08-17T09:09:48.538Z,99768.04
2022-08-17T09:12:26.138Z,99768.04
2022-08-17T09:15:22.265Z,99759.96
2022-08-17T09:18:59.040Z,99760.11
2022-08-17T09:20:55.793Z,99762.59
2022-08-17T09:23:32.683Z,99760.25
2022-08-17T09:26:23.014Z,99761.98
2022-08-17T09:28:52.483Z,99753.52
2022-08-17T09:31:22.498Z,99749.55
2022-08-17T09:33:49.233Z,99746.25
2022-08-17T09:36:22.052Z,99743.38
2022-08-17T09:39:12.331Z,99748.98
2022-08-17T09:42:03.339Z,99748.08
2022-08-17T09:45:09.204Z,99745.27
2022-08-17T09:47:46.822Z,99744.08
2022-08-17T09:51:04.481Z,99737.64
2022-08-17T09:53:07.541Z,99740.31
2022-08-17T09:55:37.651Z,99741.29
2022-08-17T09:58:11.875Z,99743.78
2022-08-17T10:00:44.389Z,99740.44
2022-08-17T10:03:29.733Z,99742.16
2022-08-17T10:06:22.264Z,99747.55
2022-08-17T10:09:04.788Z,99752.31
2022-08-17T10:12:17.638Z,99745.27
2022-08-17T10:15:07.993Z,99740.63
2022-08-17T10:18:04.349Z,99737.32
2022-08-17T10:20:37.646Z,99735.17
2022-08-17T10:23:27.328Z,99737.41
2022-08-17T10:26:15.678Z,99737.45
2022-08-17T10:28:55.333Z,99734.58
2022-08-17T10:31:50.130Z,99737.89
2022-08-17T10:34:38.758Z,99736.30
2022-08-17T10:37:22.018Z,99730.74
2022-08-17T10:39:53.055Z,99725.61
2022-08-17T10:42:36.429Z,99721.02
2022-08-17T10:46:10.363Z,99719.73
2022-08-17T10:48:40.536Z,99726.88
2022-08-17T10:51:12.910Z,99732.76
2022-08-17T10:53:44.154Z,99739.12
2022-08-17T10:56:14.290Z,99754.09
2022-08-17T10:58:56.474Z,99770.39
2022-08-17T11:01:32.879Z,99775.81
2022-08-17T11:04:18.430Z,99770.70
2022-08-17T11:06:52.297Z,99763.25
2022-08-17T11:09:31.562Z,99764.78
2022-08-17T11:12:27.094Z,99760.91
2022-08-17T11:15:25.277Z,99763.13
2022-08-17T11:18:14.963Z,99765.09
2022-08-17T11:21:00.135Z,99766.59
2022-08-17T11:23:55.140Z,99766.05
2022-08-17T11:26:27.328Z,99765.02
2022-08-17T11:29:01.738Z,99764.51
2022-08-17T11:31:40.661Z,99763.45
2022-08-17T11:34:19.017Z,99757.25
2022-08-17T11:36:48.993Z,99758.22
2022-08-17T11:39:38.233Z,99760.70
2022-08-17T11:42:12.046Z,99770.27
2022-08-17T11:44:57.455Z,99780.55
2022-08-17T11:51:18.600Z,99783.39
2022-08-17T11:53:46.166Z,99787.41
2022-08-17T11:56:37.684Z,99789.73
2022-08-17T11:59:41.103Z,99784.79
2022-08-17T12:02:20.430Z,99769.52
2022-08-17T12:05:12.874Z,99763.23
2022-08-17T12:07:52.143Z,99762.54
2022-08-17T12:10:21.821Z,99762.88
2022-08-17T12:12:48.872Z,99761.64
2022-08-17T12:15:22.222Z,99758.83
2022-08-17T12:17:53.859Z,99766.02
2022-08-17T12:20:24.328Z,99769.11
2022-08-17T12:23:01.050Z,99776.68
2022-08-17T12:25:38.131Z,99781.73
2022-08-17T12:28:07.664Z,99779.20
2022-08-17T12:30:35.098Z,99775.45
2022-08-17T12:33:03.997Z,99770.18
2022-08-17T12:35:35.551Z,99764.89
2022-08-17T12:38:03.933Z,99764.48
2022-08-17T12:40:32.210Z,99759.68
2022-08-17T12:43:08.067Z,99762.87
2022-08-17T12:45:37.018Z,99761.77
2022-08-17T12:48:08.005Z,99756.48
2022-08-17T12:50:45.453Z,99751.26
2022-08-17T12:53:16.448Z,99753.09
2022-08-17T12:55:44.626Z,99761.73
2022-08-17T12:58:14.494Z,99762.87
2022-08-17T13:00:48.659Z,99757.25
2022-08-17T13:03:21.140Z,99761.98
2022-08-17T13:05:54.233Z,99768.54
2022-08-17T13:08:31.730Z,99770.84
2022-08-17T13:11:20.259Z,99763.38
2022-08-17T13:13:50.972Z,99766.72
2022-08-17T13:16:20.520Z,99786.55
2022-08-17T13:19:10.316Z,99788.51
2022-08-17T13:21:38.596Z,99777.81
2022-08-17T13:24:11.687Z,99770.94
2022-08-17T13:26:41.321Z,99765.88
2022-08-17T13:29:32.813Z,99767.84
2022-08-17T13:32:13.444Z,99770.18
2022-08-17T13:35:12.880Z,99771.64
2022-08-17T13:37:33.442Z,99773.31
2022-08-17T13:40:09.614Z,99769.73
2022-08-17T13:42:50.215Z,99765.81
2022-08-17T13:45:36.301Z,99762.90
2022-08-17T13:48:13.752Z,99764.38
2022-08-17T13:50:43.131Z,99770.86
2022-08-17T13:53:16.484Z,99771.90
2022-08-17T13:56:37.932Z,99774.66
2022-08-17T13:59:03.281Z,99773.46
2022-08-17T14:01:41.307Z,99773.06
2022-08-17T14:04:13.512Z,99774.16
2022-08-17T14:06:59.575Z,99774.13
2022-08-17T14:09:32.445Z,99772.80
2022-08-17T14:12:02.550Z,99775.83
2022-08-17T14:14:29.820Z,99770.79
2022-08-17T14:16:57.652Z,99770.92
2022-08-17T14:19:25.556Z,99768.42
2022-08-17T14:21:59.070Z,99773.19
2022-08-17T14:24:29.566Z,99772.25
2022-08-17T14:26:56.746Z,99777.23
2022-08-17T14:29:25.850Z,99777.34
2022-08-17T14:31:54.278Z,99777.50
2022-08-17T14:34:23.095Z,99780.87
2022-08-17T14:36:51.438Z,99780.35
2022-08-17T14:39:18.762Z,99779.25
2022-08-17T14:41:45.917Z,99779.12
2022-08-17T14:44:13.483Z,99778.82
2022-08-17T14:46:41.157Z,99782.38
2022-08-17T14:49:09.319Z,99782.19
2022-08-17T14:51:44.022Z,99780.96
2022-08-17T14:54:33.389Z,99782.95
2022-08-17T14:57:16.143Z,99782.50
2022-08-17T14:59:50.672Z,99781.40
2022-08-17T15:02:22.538Z,99777.63
2022-08-17T15:05:01.990Z,99776.51
2022-08-17T15:07:30.658Z,99776.30
2022-08-17T15:10:00.732Z,99777.09
2022-08-17T15:12:32.317Z,99768.75
2022-08-17T15:15:01.155Z,99766.63
2022-08-17T15:17:44.661Z,99767.54
2022-08-17T15:20:19.259Z,99765.23
2022-08-17T15:22:49.970Z,99765.25
2022-08-17T15:25:17.908Z,99765.88
2022-08-17T15:27:45.103Z,99766.45
2022-08-17T15:30:12.912Z,99764.13
2022-08-17T15:32:41.343Z,99763.98
2022-08-17T15:35:18.086Z,99765.52
2022-08-17T15:37:45.344Z,99764.42
2022-08-17T15:40:13.091Z,99767.73
2022-08-17T15:42:41.185Z,99767.06
2022-08-17T15:45:10.901Z,99770.69
2022-08-17T15:47:38.461Z,99772.42
2022-08-17T15:50:06.740Z,99775.11
2022-08-17T15:52:38.302Z,99778.23
2022-08-17T15:55:06.379Z,99784.59
2022-08-17T15:57:34.048Z,99783.34
2022-08-17T16:00:01.273Z,99779.70
2022-08-17T16:03:32.004Z,99775.45
2022-08-17T16:05:22.027Z,99771.48
2022-08-17T16:07:52.284Z,99771.88
2022-08-17T16:10:19.927Z,99772.66
2022-08-17T16:12:48.678Z,99773.99
2022-08-17T16:15:16.486Z,99775.55
2022-08-17T16:17:43.568Z,99777.29
2022-08-17T16:20:19.928Z,99772.34
2022-08-17T16:22:48.281Z,99771.02
2022-08-17T16:25:19.014Z,99770.73
2022-08-17T16:27:47.048Z,99769.24
2022-08-17T16:30:17.663Z,99767.64
2022-08-17T16:32:47.335Z,99771.64
2022-08-17T16:35:18.378Z,99775.31
2022-08-17T16:37:45.554Z,99776.47
2022-08-17T16:40:13.908Z,99777.33
2022-08-17T16:42:40.997Z,99780.61
2022-08-17T16:45:16.944Z,99778.68
2022-08-17T16:47:44.059Z,99779.15
2022-08-17T16:50:12.819Z,99781.86
2022-08-17T16:52:40.113Z,99788.48
2022-08-17T16:55:08.489Z,99790.34
2022-08-17T16:57:37.642Z,99792.09
2022-08-17T17:00:15.486Z,99794.58
2022-08-17T17:02:46.938Z,99795.08
2022-08-17T17:05:19.130Z,99791.02
2022-08-17T17:07:55.632Z,99790.05
2022-08-17T17:10:24.794Z,99791.73
2022-08-17T17:13:02.247Z,99791.43
2022-08-17T17:15:55.405Z,99789.83
2022-08-17T17:18:54.763Z,99789.54
2022-08-17T17:21:23.471Z,99788.52
2022-08-17T17:23:59.827Z,99791.17
2022-08-17T17:26:59.218Z,99797.05
2022-08-17T17:29:47.671Z,99799.09
2022-08-17T17:32:21.893Z,99802.50
2022-08-17T17:34:53.800Z,99797.15
2022-08-17T17:37:35.092Z,99803.36
2022-08-17T17:40:12.182Z,99801.70
2022-08-17T17:42:40.275Z,99805.15
2022-08-17T17:45:21.101Z,99806.41
2022-08-17T17:47:48.429Z,99806.34
2022-08-17T17:50:17.294Z,99809.88
2022-08-17T17:52:53.760Z,99815.91
2022-08-17T17:55:39.241Z,99820.36
2022-08-17T17:58:18.171Z,99818.86
2022-08-17T18:00:49.240Z,99819.77
2022-08-17T18:03:32.949Z,99821.63
2022-08-17T18:06:18.645Z,99828.94
2022-08-17T18:09:03.898Z,99833.61
2022-08-17T18:11:43.120Z,99829.77
2022-08-17T18:14:16.544Z,99834.40
2022-08-17T18:16:46.501Z,99838.36
2022-08-17T18:19:15.045Z,99840.77
2022-08-17T18:21:44.827Z,99841.14
2022-08-17T18:24:12.282Z,99844.02
2022-08-17T18:26:55.120Z,99845.23
2022-08-17T18:29:36.386Z,99846.66
2022-08-17T18:32:34.008Z,99844.55
2022-08-17T18:35:27.775Z,99847.98
2022-08-17T18:37:57.755Z,99851.02
2022-08-17T18:40:33.810Z,99853.60
2022-08-17T18:43:00.626Z,99851.39
2022-08-17T18:45:44.972Z,99857.15
2022-08-17T18:48:19.922Z,99852.00
2022-08-17T18:50:47.178Z,99847.61
2022-08-17T18:53:33.418Z,99849.39
2022-08-17T18:56:22.141Z,99852.65
2022-08-17T18:58:53.841Z,99856.40
2022-08-17T19:01:21.376Z,99856.99
2022-08-17T19:03:50.162Z,99855.36
2022-08-17T19:06:25.756Z,99855.73
2022-08-17T19:08:53.006Z,99855.52
2022-08-17T19:11:30.176Z,99857.31
2022-08-17T19:14:01.474Z,99855.99
2022-08-17T19:16:43.927Z,99854.80
2022-08-17T19:19:15.313Z,99857.73
2022-08-17T19:21:45.500Z,99858.05
2022-08-17T19:24:21.016Z,99853.16
2022-08-17T19:26:58.338Z,99844.41
2022-08-17T19:29:34.309Z,99847.83
2022-08-17T19:32:01.293Z,99841.59
2022-08-17T19:34:34.002Z,99838.23
2022-08-17T19:37:32.638Z,99838.05
2022-08-17T19:40:41.775Z,99836.05
2022-08-17T19:43:29.000Z,99842.92
2022-08-17T19:46:12.467Z,99845.98
2022-08-17T19:48:58.023Z,99848.40
2022-08-17T19:51:46.065Z,99850.59
2022-08-17T19:54:35.109Z,99849.30
2022-08-17T19:57:19.696Z,99850.50
2022-08-17T20:00:13.579Z,99847.69
2022-08-17T20:02:58.448Z,99845.23
2022-08-17T20:06:13.469Z,99845.70
2022-08-17T20:08:54.296Z,99845.67
2022-08-17T20:11:46.441Z,99840.77
2022-08-17T20:14:19.947Z,99836.15
2022-08-17T20:16:46.996Z,99835.86
2022-08-17T20:19:16.854Z,99838.05
2022-08-17T20:21:53.917Z,99839.83
2022-08-17T20:24:41.972Z,99838.86
2022-08-17T20:27:21.072Z,99837.11
2022-08-17T20:30:12.117Z,99837.21
2022-08-17T20:32:55.750Z,99845.20
2022-08-17T20:35:27.733Z,99843.31
2022-08-17T20:37:57.817Z,99839.13
2022-08-17T20:40:32.234Z,99839.89
2022-08-17T20:42:59.690Z,99837.86
2022-08-17T20:45:27.354Z,99836.52
2022-08-17T20:48:35.067Z,99835.04
2022-08-17T20:50:53.708Z,99832.66
2022-08-17T20:53:56.188Z,99835.02
2022-08-17T20:56:45.250Z,99833.73
2022-08-17T20:59:45.156Z,99832.29
2022-08-17T21:02:19.533Z,99828.58
2022-08-17T21:04:56.667Z,99822.48
2022-08-17T21:07:33.116Z,99824.61
2022-08-17T21:10:35.793Z,99826.10
2022-08-17T21:13:12.597Z,99829.30
2022-08-17T21:15:48.641Z,99826.68
2022-08-17T21:18:38.879Z,99825.05
2022-08-17T21:21:32.018Z,99821.32
2022-08-17T21:24:14.111Z,99820.02
2022-08-17T21:27:09.048Z,99815.84
2022-08-17T21:29:40.360Z,99817.61
2022-08-17T21:32:09.521Z,99817.77
2022-08-17T21:34:42.862Z,99819.77
2022-08-17T21:37:19.131Z,99821.17
2022-08-17T21:39:52.658Z,99824.23
2022-08-17T21:42:55.110Z,99824.56
2022-08-17T21:45:35.236Z,99821.75
2022-08-17T21:48:26.049Z,99812.67
2022-08-17T21:51:15.563Z,99810.77
2022-08-17T21:53:42.509Z,99813.70
2022-08-17T21:56:10.983Z,99815.96
2022-08-17T21:58:40.518Z,99817.15
2022-08-17T22:01:20.085Z,99813.02
2022-08-17T22:03:54.203Z,99813.62
2022-08-17T22:06:26.480Z,99814.14
2022-08-17T22:09:15.103Z,99816.42
2022-08-17T22:11:55.876Z,99815.77
2022-08-17T22:14:51.551Z,99811.16
2022-08-17T22:17:19.365Z,99807.70
2022-08-17T22:20:00.174Z,99809.01
2022-08-17T22:22:30.162Z,99808.70
2022-08-17T22:25:21.245Z,99808.21
2022-08-17T22:27:50.442Z,99806.34
2022-08-17T22:30:41.392Z,99807.13
2022-08-17T22:33:33.841Z,99804.85
2022-08-17T22:36:24.852Z,99803.46
2022-08-17T22:39:17.404Z,99803.83
2022-08-17T22:41:48.344Z,99805.66
2022-08-17T22:44:24.514Z,99808.38
2022-08-17T22:47:11.786Z,99810.95
2022-08-17T22:49:53.991Z,99809.91
2022-08-17T22:53:00.607Z,99803.51
2022-08-17T22:55:46.621Z,99807.44
2022-08-17T22:58:34.156Z,99812.96
2022-08-17T23:01:32.577Z,99813.11
2022-08-17T23:04:33.091Z,99811.77
2022-08-17T23:07:00.025Z,99810.02
2022-08-17T23:09:27.080Z,99811.73
2022-08-17T23:11:58.973Z,99809.40
2022-08-17T23:14:31.728Z,99811.04
2022-08-17T23:17:02.200Z,99814.75
2022-08-17T23:19:31.595Z,99813.58
2022-08-17T23:21:59.547Z,99818.86
2022-08-17T23:24:30.615Z,99816.52
2022-08-17T23:26:58.360Z,99817.96
2022-08-17T23:29:26.227Z,99816.60
2022-08-17T23:31:53.109Z,99816.91
2022-08-17T23:34:20.126Z,99816.48
2022-08-17T23:36:52.510Z,99814.73
2022-08-17T23:39:24.355Z,99816.77
2022-08-17T23:41:55.521Z,99819.45
2022-08-17T23:44:25.433Z,99820.15
2022-08-17T23:46:52.895Z,99822.52
2022-08-17T23:49:19.948Z,99826.73
2022-08-17T23:51:47.343Z,99827.08
2022-08-17T23:54:37.566Z,99827.20
2022-08-17T23:57:05.100Z,99829.08
2022-08-17T23:59:34.070Z,99830.39
